createdAt,value
2023-04-17T00:00:56.489Z,94847.00
2023-04-17T00:01:56.627Z,94849.00
2023-04-17T00:02:56.700Z,94847.00
2023-04-17T00:03:56.764Z,94847.00
2023-04-17T00:04:56.862Z,94849.00
2023-04-17T00:05:56.752Z,94845.00
2023-04-17T00:06:56.793Z,94845.00
2023-04-17T00:07:56.858Z,94845.00
2023-04-17T00:08:56.928Z,94845.00
2023-04-17T00:09:56.962Z,94847.00
2023-04-17T00:11:07.047Z,94847.00
2023-04-17T00:11:58.049Z,94845.00
2023-04-17T00:12:57.006Z,94845.00
2023-04-17T00:13:57.003Z,94843.00
2023-04-17T00:14:56.999Z,94845.00
2023-04-17T00:15:56.996Z,94841.00
2023-04-17T00:16:57.014Z,94843.00
2023-04-17T00:17:57.069Z,94841.00
2023-04-17T00:18:56.950Z,94841.00
2023-04-17T00:19:56.990Z,94839.00
2023-04-17T00:20:57.263Z,94839.00
2023-04-17T00:21:57.036Z,94839.00
2023-04-17T00:22:57.183Z,94841.00
2023-04-17T00:23:57.232Z,94843.00
2023-04-17T00:24:57.186Z,94837.00
2023-04-17T00:25:57.251Z,94837.00
2023-04-17T00:26:57.301Z,94837.00
2023-04-17T00:27:57.349Z,94837.00
2023-04-17T00:28:57.408Z,94835.00
2023-04-17T00:29:57.469Z,94837.00
2023-04-17T00:30:57.500Z,94835.00
2023-04-17T00:31:57.609Z,94837.00
2023-04-17T00:32:57.632Z,94837.00
2023-04-17T00:33:57.622Z,94835.00
2023-04-17T00:34:57.718Z,94833.00
2023-04-17T00:35:57.746Z,94835.00
2023-04-17T00:36:57.760Z,94835.00
2023-04-17T00:37:57.824Z,94833.00
2023-04-17T00:38:57.877Z,94835.00
2023-04-17T00:39:57.959Z,94833.00
2023-04-17T00:40:57.967Z,94835.00
2023-04-17T00:41:58.009Z,94835.00
2023-04-17T00:42:58.059Z,94833.00
2023-04-17T00:43:58.125Z,94837.00
2023-04-17T00:44:58.202Z,94833.00
2023-04-17T00:45:58.224Z,94833.00
2023-04-17T00:46:58.242Z,94835.00
2023-04-17T00:47:58.352Z,94835.00
2023-04-17T00:48:58.354Z,94831.00
2023-04-17T00:49:58.434Z,94831.00
2023-04-17T00:50:58.484Z,94833.00
2023-04-17T00:51:58.493Z,94835.00
2023-04-17T00:52:58.554Z,94833.00
2023-04-17T00:53:58.597Z,94833.00
2023-04-17T00:54:58.665Z,94835.00
2023-04-17T00:55:58.770Z,94833.00
2023-04-17T00:56:58.913Z,94833.00
2023-04-17T00:57:58.819Z,94831.00
2023-04-17T00:58:58.966Z,94829.00
2023-04-17T00:59:58.942Z,94827.00
2023-04-17T01:00:59.040Z,94827.00
2023-04-17T01:01:59.092Z,94827.00
2023-04-17T01:02:59.147Z,94827.00
2023-04-17T01:03:59.210Z,94827.00
2023-04-17T01:04:59.212Z,94827.00
2023-04-17T01:05:59.244Z,94827.00
2023-04-17T01:06:59.281Z,94829.00
2023-04-17T01:07:59.345Z,94825.00
2023-04-17T01:08:59.395Z,94827.00
2023-04-17T01:09:59.452Z,94829.00
2023-04-17T01:10:59.469Z,94827.00
2023-04-17T01:11:59.563Z,94827.00
2023-04-17T01:12:59.595Z,94827.00
2023-04-17T01:13:59.656Z,94825.00
2023-04-17T01:14:59.679Z,94827.00
2023-04-17T01:15:59.937Z,94831.00
2023-04-17T01:16:59.842Z,94827.00
2023-04-17T01:17:59.837Z,94829.00
2023-04-17T01:18:59.851Z,94829.00
2023-04-17T01:19:59.889Z,94831.00
2023-04-17T01:21:00.905Z,94831.00
2023-04-17T01:22:00.028Z,94831.00
2023-04-17T01:23:00.034Z,94833.00
2023-04-17T01:24:00.071Z,94833.00
2023-04-17T01:25:00.174Z,94833.00
2023-04-17T01:26:00.238Z,94835.00
2023-04-17T01:27:00.196Z,94833.00
2023-04-17T01:28:00.246Z,94837.00
2023-04-17T01:29:00.358Z,94835.00
2023-04-17T01:30:00.331Z,94835.00
2023-04-17T01:31:00.427Z,94833.00
2023-04-17T01:32:00.427Z,94835.00
2023-04-17T01:33:00.511Z,94835.00
2023-04-17T01:34:00.549Z,94835.00
2023-04-17T01:35:00.588Z,94833.00
2023-04-17T01:36:00.636Z,94833.00
2023-04-17T01:37:00.619Z,94835.00
2023-04-17T01:38:00.666Z,94831.00
2023-04-17T01:39:00.767Z,94831.00
2023-04-17T01:40:00.718Z,94831.00
2023-04-17T01:41:00.791Z,94831.00
2023-04-17T01:42:00.828Z,94831.00
2023-04-17T01:43:00.855Z,94829.00
2023-04-17T01:44:01.011Z,94829.00
2023-04-17T01:45:00.924Z,94829.00
2023-04-17T01:46:01.062Z,94829.00
2023-04-17T01:47:01.017Z,94829.00
2023-04-17T01:48:01.163Z,94831.00
2023-04-17T01:49:01.091Z,94829.00
2023-04-17T01:50:01.123Z,94829.00
2023-04-17T01:51:01.156Z,94829.00
2023-04-17T01:52:01.200Z,94829.00
2023-04-17T01:53:01.225Z,94829.00
2023-04-17T01:54:01.236Z,94829.00
2023-04-17T01:55:01.304Z,94829.00
2023-04-17T01:56:01.314Z,94831.00
2023-04-17T01:57:01.381Z,94829.00
2023-04-17T01:58:01.426Z,94831.00
2023-04-17T01:59:01.417Z,94829.00
2023-04-17T02:00:01.571Z,94829.00
2023-04-17T02:01:01.572Z,94831.00
2023-04-17T02:02:01.578Z,94829.00
2023-04-17T02:03:01.666Z,94829.00
2023-04-17T02:04:01.828Z,94825.00
2023-04-17T02:05:01.696Z,94827.00
2023-04-17T02:06:01.717Z,94825.00
2023-04-17T02:07:01.807Z,94825.00
2023-04-17T02:08:01.740Z,94827.00
2023-04-17T02:09:01.817Z,94829.00
2023-04-17T02:10:01.841Z,94827.00
2023-04-17T02:11:01.864Z,94827.00
2023-04-17T02:12:01.912Z,94829.00
2023-04-17T02:13:01.949Z,94829.00
2023-04-17T02:14:02.079Z,94831.00
2023-04-17T02:15:02.034Z,94827.00
2023-04-17T02:16:02.195Z,94827.00
2023-04-17T02:17:02.059Z,94827.00
2023-04-17T02:18:02.238Z,94825.00
2023-04-17T02:19:02.132Z,94829.00
2023-04-17T02:20:02.159Z,94829.00
2023-04-17T02:21:02.230Z,94829.00
2023-04-17T02:22:02.262Z,94831.00
2023-04-17T02:23:02.285Z,94831.00
2023-04-17T02:24:02.311Z,94831.00
2023-04-17T02:25:02.338Z,94831.00
2023-04-17T02:26:02.382Z,94833.00
2023-04-17T02:27:02.426Z,94831.00
2023-04-17T02:28:02.423Z,94833.00
2023-04-17T02:29:02.481Z,94831.00
2023-04-17T02:30:02.501Z,94831.00
2023-04-17T02:31:02.595Z,94831.00
2023-04-17T02:32:02.600Z,94833.00
2023-04-17T02:33:02.625Z,94833.00
2023-04-17T02:34:02.625Z,94835.00
2023-04-17T02:35:02.699Z,94835.00
2023-04-17T02:36:02.764Z,94837.00
2023-04-17T02:37:02.757Z,94837.00
2023-04-17T02:38:02.817Z,94835.00
2023-04-17T02:39:02.818Z,94835.00
2023-04-17T02:40:02.848Z,94835.00
2023-04-17T02:41:02.910Z,94835.00
2023-04-17T02:42:02.928Z,94839.00
2023-04-17T02:43:02.935Z,94839.00
2023-04-17T02:44:02.979Z,94837.00
2023-04-17T02:45:03.014Z,94837.00
2023-04-17T02:46:03.054Z,94837.00
2023-04-17T02:47:03.084Z,94835.00
2023-04-17T02:48:03.153Z,94833.00
2023-04-17T02:49:03.126Z,94835.00
2023-04-17T02:50:03.155Z,94831.00
2023-04-17T02:51:03.203Z,94835.00
2023-04-17T02:52:03.238Z,94833.00
2023-04-17T02:53:03.249Z,94833.00
2023-04-17T02:54:03.282Z,94831.00
2023-04-17T02:55:03.338Z,94831.00
2023-04-17T02:56:03.353Z,94831.00
2023-04-17T02:57:03.354Z,94831.00
2023-04-17T02:58:03.428Z,94831.00
2023-04-17T02:59:03.414Z,94829.00
2023-04-17T03:00:03.450Z,94827.00
2023-04-17T03:01:03.516Z,94827.00
2023-04-17T03:02:03.568Z,94825.00
2023-04-17T03:03:03.665Z,94825.00
2023-04-17T03:04:03.718Z,94823.00
2023-04-17T03:05:03.685Z,94827.00
2023-04-17T03:06:03.596Z,94823.00
2023-04-17T03:07:03.623Z,94821.00
2023-04-17T03:08:03.686Z,94823.00
2023-04-17T03:09:03.704Z,94823.00
2023-04-17T03:10:03.719Z,94821.00
2023-04-17T03:11:03.757Z,94821.00
2023-04-17T03:12:03.818Z,94825.00
2023-04-17T03:13:03.814Z,94823.00
2023-04-17T03:14:03.842Z,94823.00
2023-04-17T03:15:03.877Z,94823.00
2023-04-17T03:16:03.911Z,94823.00
2023-04-17T03:17:03.953Z,94825.00
2023-04-17T03:18:03.997Z,94823.00
2023-04-17T03:19:04.069Z,94823.00
2023-04-17T03:20:04.005Z,94825.00
2023-04-17T03:21:04.097Z,94825.00
2023-04-17T03:22:04.088Z,94827.00
2023-04-17T03:23:04.117Z,94823.00
2023-04-17T03:24:04.142Z,94825.00
2023-04-17T03:25:04.168Z,94825.00
2023-04-17T03:26:04.205Z,94825.00
2023-04-17T03:27:04.211Z,94825.00
2023-04-17T03:28:04.251Z,94823.00
2023-04-17T03:29:04.280Z,94825.00
2023-04-17T03:30:04.301Z,94827.00
2023-04-17T03:31:04.335Z,94827.00
2023-04-17T03:32:04.458Z,94829.00
2023-04-17T03:33:04.452Z,94831.00
2023-04-17T03:34:04.425Z,94829.00
2023-04-17T03:35:04.454Z,94829.00
2023-04-17T03:36:04.516Z,94831.00
2023-04-17T03:37:04.527Z,94833.00
2023-04-17T03:38:04.598Z,94833.00
2023-04-17T03:39:04.569Z,94831.00
2023-04-17T03:40:04.642Z,94831.00
2023-04-17T03:41:04.671Z,94833.00
2023-04-17T03:42:04.675Z,94835.00
2023-04-17T03:43:04.698Z,94835.00
2023-04-17T03:44:04.735Z,94839.00
2023-04-17T03:45:04.859Z,94839.00
2023-04-17T03:46:04.841Z,94839.00
2023-04-17T03:47:04.841Z,94841.00
2023-04-17T03:48:04.881Z,94837.00
2023-04-17T03:49:04.866Z,94835.00
2023-04-17T03:50:04.932Z,94835.00
2023-04-17T03:51:04.958Z,94835.00
2023-04-17T03:52:04.975Z,94835.00
2023-04-17T03:53:04.997Z,94839.00
2023-04-17T03:54:04.997Z,94837.00
2023-04-17T03:55:05.072Z,94837.00
2023-04-17T03:56:05.096Z,94839.00
2023-04-17T03:57:05.469Z,94843.00
2023-04-17T03:58:05.133Z,94845.00
2023-04-17T03:59:05.173Z,94847.00
2023-04-17T04:00:05.179Z,94845.00
2023-04-17T04:01:05.188Z,94847.00
2023-04-17T04:02:05.293Z,94847.00
2023-04-17T04:03:05.505Z,94847.00
2023-04-17T04:04:05.307Z,94849.00
2023-04-17T04:05:05.292Z,94849.00
2023-04-17T04:06:05.336Z,94851.00
2023-04-17T04:07:05.355Z,94851.00
2023-04-17T04:08:05.369Z,94855.00
2023-04-17T04:09:05.380Z,94853.00
2023-04-17T04:10:05.448Z,94855.00
2023-04-17T04:11:05.493Z,94853.00
2023-04-17T04:12:05.486Z,94855.00
2023-04-17T04:13:05.505Z,94855.00
2023-04-17T04:14:05.520Z,94855.00
2023-04-17T04:15:05.548Z,94855.00
2023-04-17T04:16:05.622Z,94855.00
2023-04-17T04:17:05.642Z,94855.00
2023-04-17T04:18:05.745Z,94857.00
2023-04-17T04:19:05.673Z,94855.00
2023-04-17T04:20:05.685Z,94857.00
2023-04-17T04:21:06.067Z,94855.00
2023-04-17T04:22:06.999Z,94855.00
2023-04-17T04:23:05.795Z,94855.00
2023-04-17T04:24:05.804Z,94853.00
2023-04-17T04:25:05.836Z,94853.00
2023-04-17T04:26:05.862Z,94853.00
2023-04-17T04:27:05.872Z,94853.00
2023-04-17T04:28:05.945Z,94855.00
2023-04-17T04:29:05.963Z,94855.00
2023-04-17T04:30:05.990Z,94853.00
2023-04-17T04:31:06.042Z,94853.00
2023-04-17T04:32:06.012Z,94851.00
2023-04-17T04:33:06.286Z,94853.00
2023-04-17T04:34:06.143Z,94853.00
2023-04-17T04:35:06.123Z,94853.00
2023-04-17T04:36:06.139Z,94857.00
2023-04-17T04:37:06.153Z,94859.00
2023-04-17T04:38:06.347Z,94859.00
2023-04-17T04:39:06.192Z,94859.00
2023-04-17T04:40:06.273Z,94857.00
2023-04-17T04:41:06.654Z,94857.00
2023-04-17T04:42:06.325Z,94855.00
2023-04-17T04:43:06.325Z,94857.00
2023-04-17T04:44:06.345Z,94855.00
2023-04-17T04:45:06.387Z,94857.00
2023-04-17T04:46:06.438Z,94857.00
2023-04-17T04:47:06.652Z,94857.00
2023-04-17T04:48:06.533Z,94855.00
2023-04-17T04:49:06.477Z,94857.00
2023-04-17T04:50:06.506Z,94859.00
2023-04-17T04:51:06.526Z,94857.00
2023-04-17T04:52:06.589Z,94859.00
2023-04-17T04:53:06.605Z,94859.00
2023-04-17T04:54:06.576Z,94862.00
2023-04-17T04:55:06.608Z,94860.00
2023-04-17T04:56:06.615Z,94862.00
2023-04-17T04:57:06.685Z,94862.00
2023-04-17T04:58:06.703Z,94862.00
2023-04-17T04:59:06.713Z,94864.00
2023-04-17T05:00:06.784Z,94866.00
2023-04-17T05:01:06.890Z,94864.00
2023-04-17T05:02:06.907Z,94866.00
2023-04-17T05:03:06.942Z,94866.00
2023-04-17T05:04:06.997Z,94866.00
2023-04-17T05:05:06.859Z,94866.00
2023-04-17T05:06:06.850Z,94864.00
2023-04-17T05:07:06.863Z,94866.00
2023-04-17T05:08:06.912Z,94870.00
2023-04-17T05:09:07.036Z,94866.00
2023-04-17T05:10:06.985Z,94864.00
2023-04-17T05:11:07.098Z,94866.00
2023-04-17T05:12:07.065Z,94868.00
2023-04-17T05:13:07.054Z,94868.00
2023-04-17T05:14:07.068Z,94870.00
2023-04-17T05:15:07.139Z,94870.00
2023-04-17T05:16:07.540Z,94870.00
2023-04-17T05:17:07.114Z,94870.00
2023-04-17T05:18:07.542Z,94870.00
2023-04-17T05:19:07.144Z,94870.00
2023-04-17T05:20:07.252Z,94870.00
2023-04-17T05:21:07.235Z,94868.00
2023-04-17T05:22:07.223Z,94868.00
2023-04-17T05:23:07.293Z,94866.00
2023-04-17T05:24:07.274Z,94868.00
2023-04-17T05:25:07.355Z,94870.00
2023-04-17T05:26:07.324Z,94870.00
2023-04-17T05:27:07.360Z,94868.00
2023-04-17T05:28:07.398Z,94870.00
2023-04-17T05:29:07.462Z,94872.00
2023-04-17T05:30:07.483Z,94870.00
2023-04-17T05:31:07.550Z,94874.00
2023-04-17T05:32:07.729Z,94876.00
2023-04-17T05:33:07.578Z,94876.00
2023-04-17T05:34:07.533Z,94876.00
2023-04-17T05:35:07.552Z,94880.00
2023-04-17T05:36:07.673Z,94878.00
2023-04-17T05:37:07.624Z,94878.00
2023-04-17T05:38:08.139Z,94878.00
2023-04-17T05:39:07.643Z,94878.00
2023-04-17T05:40:07.751Z,94880.00
2023-04-17T05:41:07.704Z,94882.00
2023-04-17T05:42:07.674Z,94882.00
2023-04-17T05:43:08.068Z,94882.00
2023-04-17T05:44:07.711Z,94886.00
2023-04-17T05:45:07.685Z,94884.00
2023-04-17T05:46:08.566Z,94884.00
2023-04-17T05:47:07.858Z,94886.00
2023-04-17T05:48:08.077Z,94882.00
2023-04-17T05:49:07.954Z,94880.00
2023-04-17T05:50:07.963Z,94878.00
2023-04-17T05:51:07.992Z,94880.00
2023-04-17T05:52:08.052Z,94882.00
2023-04-17T05:53:08.117Z,94880.00
2023-04-17T05:54:08.163Z,94880.00
2023-04-17T05:55:08.187Z,94880.00
2023-04-17T05:56:08.297Z,94882.00
2023-04-17T05:57:08.277Z,94884.00
2023-04-17T05:58:23.252Z,94888.00
2023-04-17T05:59:09.385Z,94898.00
2023-04-17T06:00:08.371Z,94890.00
2023-04-17T06:01:08.331Z,94898.00
2023-04-17T06:02:08.458Z,94898.00
2023-04-17T06:03:08.490Z,94890.00
2023-04-17T06:04:08.473Z,94898.00
2023-04-17T06:05:08.546Z,94900.00
2023-04-17T06:06:08.289Z,94890.00
2023-04-17T06:07:08.296Z,94898.00
2023-04-17T06:08:08.332Z,94898.00
2023-04-17T06:09:08.264Z,94898.00
2023-04-17T06:10:08.242Z,94898.00
2023-04-17T06:11:08.253Z,94888.00
2023-04-17T06:12:08.266Z,94898.00
2023-04-17T06:13:08.244Z,94898.00
2023-04-17T06:15:21.191Z,94902.00
2023-04-17T06:16:21.299Z,94904.00
2023-04-17T06:17:21.318Z,94902.00
2023-04-17T06:18:21.217Z,94908.00
2023-04-17T06:19:21.198Z,94908.00
2023-04-17T06:20:21.123Z,94908.00
2023-04-17T06:21:21.177Z,94908.00
2023-04-17T06:22:21.316Z,94913.00
2023-04-17T06:23:21.360Z,94912.00
2023-04-17T06:24:21.110Z,94913.00
2023-04-17T06:25:21.865Z,94915.00
2023-04-17T06:26:21.112Z,94915.00
2023-04-17T06:27:21.106Z,94913.00
2023-04-17T06:28:21.116Z,94915.00
2023-04-17T06:29:21.130Z,94917.00
2023-04-17T06:30:21.079Z,94915.00
2023-04-17T06:31:21.128Z,94915.00
2023-04-17T06:32:21.100Z,94919.00
2023-04-17T06:33:21.085Z,94917.00
2023-04-17T06:34:21.055Z,94919.00
2023-04-17T06:35:21.072Z,94923.00
2023-04-17T06:36:21.049Z,94921.00
2023-04-17T06:37:21.064Z,94923.00
2023-04-17T06:38:21.033Z,94923.00
2023-04-17T06:39:21.016Z,94925.00
2023-04-17T06:40:21.090Z,94923.00
2023-04-17T06:41:21.030Z,94923.00
2023-04-17T06:42:21.251Z,94923.00
2023-04-17T06:43:21.075Z,94927.00
2023-04-17T06:44:20.996Z,94925.00
2023-04-17T06:45:21.025Z,94925.00
2023-04-17T06:46:21.012Z,94923.00
2023-04-17T06:47:21.015Z,94925.00
2023-04-17T06:48:21.024Z,94923.00
2023-04-17T06:49:20.974Z,94923.00
2023-04-17T06:50:21.001Z,94925.00
2023-04-17T06:51:20.952Z,94925.00
2023-04-17T06:52:21.503Z,94923.00
2023-04-17T06:53:21.364Z,94925.00
2023-04-17T06:54:20.969Z,94927.00
2023-04-17T06:55:20.936Z,94925.00
2023-04-17T06:56:20.937Z,94927.00
2023-04-17T06:57:20.919Z,94925.00
2023-04-17T06:58:21.401Z,94929.00
2023-04-17T06:59:20.943Z,94925.00
2023-04-17T07:00:20.869Z,94929.00
2023-04-17T07:01:20.913Z,94925.00
2023-04-17T07:02:21.138Z,94931.00
2023-04-17T07:03:21.113Z,94929.00
2023-04-17T07:04:21.007Z,94927.00
2023-04-17T07:05:20.851Z,94929.00
2023-04-17T07:06:20.851Z,94933.00
2023-04-17T07:07:20.860Z,94929.00
2023-04-17T07:08:20.808Z,94933.00
2023-04-17T07:09:20.831Z,94935.00
2023-04-17T07:10:20.800Z,94935.00
2023-04-17T07:11:20.887Z,94937.00
2023-04-17T07:12:20.798Z,94935.00
2023-04-17T07:13:20.779Z,94935.00
2023-04-17T07:14:20.771Z,94935.00
2023-04-17T07:15:20.929Z,94933.00
2023-04-17T07:16:20.808Z,94935.00
2023-04-17T07:17:20.892Z,94935.00
2023-04-17T07:18:20.802Z,94937.00
2023-04-17T07:19:20.867Z,94937.00
2023-04-17T07:20:20.889Z,94935.00
2023-04-17T07:21:20.935Z,94935.00
2023-04-17T07:22:20.979Z,94935.00
2023-04-17T07:23:20.986Z,94935.00
2023-04-17T07:24:21.000Z,94937.00
2023-04-17T07:25:21.044Z,94933.00
2023-04-17T07:26:21.094Z,94933.00
2023-04-17T07:27:21.079Z,94933.00
2023-04-17T07:28:21.107Z,94935.00
2023-04-17T07:29:21.628Z,94933.00
2023-04-17T07:30:21.184Z,94935.00
2023-04-17T07:31:21.219Z,94937.00
2023-04-17T07:32:21.235Z,94937.00
2023-04-17T07:33:21.232Z,94937.00
2023-04-17T07:34:21.253Z,94939.00
2023-04-17T07:35:21.416Z,94939.00
2023-04-17T07:36:21.294Z,94935.00
2023-04-17T07:37:21.378Z,94937.00
2023-04-17T07:38:21.332Z,94937.00
2023-04-17T07:39:21.382Z,94935.00
2023-04-17T07:40:22.395Z,94935.00
2023-04-17T07:41:21.403Z,94937.00
2023-04-17T07:42:21.462Z,94939.00
2023-04-17T07:43:21.540Z,94939.00
2023-04-17T07:44:21.912Z,94941.00
2023-04-17T07:45:21.533Z,94941.00
2023-04-17T07:46:21.688Z,94941.00
2023-04-17T07:47:22.216Z,94945.00
2023-04-17T07:48:21.576Z,94943.00
2023-04-17T07:49:21.587Z,94945.00
2023-04-17T07:50:21.640Z,94939.00
2023-04-17T07:51:21.699Z,94941.00
2023-04-17T07:52:21.691Z,94939.00
2023-04-17T07:53:21.743Z,94937.00
2023-04-17T07:54:21.792Z,94937.00
2023-04-17T07:55:21.791Z,94935.00
2023-04-17T07:56:21.775Z,94937.00
2023-04-17T07:57:21.786Z,94933.00
2023-04-17T07:58:21.796Z,94931.00
2023-04-17T07:59:21.903Z,94933.00
2023-04-17T08:00:21.999Z,94933.00
2023-04-17T08:01:21.989Z,94933.00
2023-04-17T08:02:22.860Z,94931.00
2023-04-17T08:03:22.256Z,94933.00
2023-04-17T08:04:22.180Z,94935.00
2023-04-17T08:05:22.085Z,94937.00
2023-04-17T08:06:22.037Z,94935.00
2023-04-17T08:07:22.396Z,94937.00
2023-04-17T08:08:22.164Z,94935.00
2023-04-17T08:09:22.358Z,94933.00
2023-04-17T08:10:22.353Z,94933.00
2023-04-17T08:11:22.469Z,94931.00
2023-04-17T08:12:22.963Z,94935.00
2023-04-17T08:13:22.464Z,94931.00
2023-04-17T08:14:22.909Z,94933.00
2023-04-17T08:15:22.513Z,94933.00
2023-04-17T08:16:22.534Z,94935.00
2023-04-17T08:17:22.636Z,94935.00
2023-04-17T08:18:22.550Z,94935.00
2023-04-17T08:19:22.907Z,94935.00
2023-04-17T08:20:22.606Z,94933.00
2023-04-17T08:21:22.657Z,94933.00
2023-04-17T08:22:22.779Z,94937.00
2023-04-17T08:23:22.803Z,94933.00
2023-04-17T08:24:22.920Z,94931.00
2023-04-17T08:25:22.930Z,94931.00
2023-04-17T08:26:23.021Z,94929.00
2023-04-17T08:27:23.142Z,94931.00
2023-04-17T08:28:23.124Z,94931.00
2023-04-17T08:29:23.171Z,94929.00
2023-04-17T08:30:23.334Z,94927.00
2023-04-17T08:31:23.980Z,94931.00
2023-04-17T08:32:23.473Z,94929.00
2023-04-17T08:33:23.485Z,94929.00
2023-04-17T08:34:23.955Z,94931.00
2023-04-17T08:35:23.540Z,94929.00
2023-04-17T08:36:24.420Z,94927.00
2023-04-17T08:37:23.986Z,94927.00
2023-04-17T08:38:23.676Z,94927.00
2023-04-17T08:39:24.421Z,94925.00
2023-04-17T08:40:23.850Z,94925.00
2023-04-17T08:41:23.894Z,94925.00
2023-04-17T08:42:23.789Z,94925.00
2023-04-17T08:43:23.791Z,94923.00
2023-04-17T08:44:23.938Z,94921.00
2023-04-17T08:45:23.909Z,94921.00
2023-04-17T08:46:24.035Z,94919.00
2023-04-17T08:47:25.006Z,94919.00
2023-04-17T08:48:24.055Z,94919.00
2023-04-17T08:49:24.084Z,94919.00
2023-04-17T08:50:24.088Z,94915.00
2023-04-17T08:51:24.139Z,94915.00
2023-04-17T08:52:24.444Z,94912.00
2023-04-17T08:53:24.181Z,94912.00
2023-04-17T08:54:24.159Z,94906.00
2023-04-17T08:55:24.136Z,94906.00
2023-04-17T08:56:24.191Z,94906.00
2023-04-17T08:57:24.426Z,94906.00
2023-04-17T08:58:24.203Z,94906.00
2023-04-17T08:59:24.352Z,94908.00
2023-04-17T09:00:24.390Z,94910.00
2023-04-17T09:01:24.261Z,94904.00
2023-04-17T09:02:26.854Z,94904.00
2023-04-17T09:03:24.430Z,94904.00
2023-04-17T09:04:24.400Z,94902.00
2023-04-17T09:05:24.211Z,94902.00
2023-04-17T09:06:24.216Z,94898.00
2023-04-17T09:07:24.242Z,94898.00
2023-04-17T09:08:24.350Z,94898.00
2023-04-17T09:09:24.187Z,94898.00
2023-04-17T09:10:24.222Z,94890.00
2023-04-17T09:11:24.172Z,94886.00
2023-04-17T09:12:24.177Z,94886.00
2023-04-17T09:13:24.148Z,94884.00
2023-04-17T09:14:26.225Z,94882.00
2023-04-17T09:15:24.365Z,94886.00
2023-04-17T09:16:24.392Z,94884.00
2023-04-17T09:17:24.405Z,94888.00
2023-04-17T09:18:24.413Z,94888.00
2023-04-17T09:19:24.472Z,94886.00
2023-04-17T09:20:24.509Z,94888.00
2023-04-17T09:21:24.566Z,94888.00
2023-04-17T09:22:24.629Z,94888.00
2023-04-17T09:23:24.705Z,94888.00
2023-04-17T09:24:24.786Z,94888.00
2023-04-17T09:25:24.845Z,94884.00
2023-04-17T09:26:24.909Z,94882.00
2023-04-17T09:27:25.023Z,94884.00
2023-04-17T09:28:25.028Z,94880.00
2023-04-17T09:29:25.101Z,94880.00
2023-04-17T09:30:25.171Z,94882.00
2023-04-17T09:31:25.347Z,94882.00
2023-04-17T09:32:25.338Z,94882.00
2023-04-17T09:33:25.329Z,94882.00
2023-04-17T09:34:25.371Z,94880.00
2023-04-17T09:35:25.473Z,94882.00
2023-04-17T09:36:25.486Z,94880.00
2023-04-17T09:37:25.567Z,94878.00
2023-04-17T09:38:25.585Z,94880.00
2023-04-17T09:39:25.630Z,94880.00
2023-04-17T09:40:25.954Z,94876.00
2023-04-17T09:41:25.770Z,94876.00
2023-04-17T09:42:28.453Z,94876.00
2023-04-17T09:43:25.790Z,94876.00
2023-04-17T09:44:25.830Z,94878.00
2023-04-17T09:45:26.024Z,94880.00
2023-04-17T09:46:25.777Z,94876.00
2023-04-17T09:47:25.934Z,94878.00
2023-04-17T09:48:25.767Z,94876.00
2023-04-17T09:49:25.757Z,94876.00
2023-04-17T09:50:25.791Z,94876.00
2023-04-17T09:51:25.763Z,94876.00
2023-04-17T09:52:25.821Z,94874.00
2023-04-17T09:53:25.843Z,94876.00
2023-04-17T09:54:25.780Z,94876.00
2023-04-17T09:55:25.713Z,94878.00
2023-04-17T09:56:25.743Z,94874.00
2023-04-17T09:57:25.719Z,94876.00
2023-04-17T09:58:25.902Z,94876.00
2023-04-17T09:59:25.788Z,94876.00
2023-04-17T10:00:27.017Z,94876.00
2023-04-17T10:01:25.788Z,94878.00
2023-04-17T10:02:25.777Z,94872.00
2023-04-17T10:03:25.811Z,94872.00
2023-04-17T10:04:25.877Z,94876.00
2023-04-17T10:05:25.686Z,94878.00
2023-04-17T10:06:25.636Z,94874.00
2023-04-17T10:07:26.459Z,94872.00
2023-04-17T10:08:25.647Z,94874.00
2023-04-17T10:09:25.617Z,94874.00
2023-04-17T10:10:25.961Z,94870.00
2023-04-17T10:11:25.664Z,94868.00
2023-04-17T10:12:25.617Z,94870.00
2023-04-17T10:13:25.601Z,94870.00
2023-04-17T10:14:25.597Z,94864.00
2023-04-17T10:15:25.660Z,94864.00
2023-04-17T10:16:25.618Z,94866.00
2023-04-17T10:17:25.619Z,94866.00
2023-04-17T10:18:25.593Z,94862.00
2023-04-17T10:19:28.453Z,94864.00
2023-04-17T10:20:25.580Z,94866.00
2023-04-17T10:21:25.554Z,94864.00
2023-04-17T10:22:25.543Z,94864.00
2023-04-17T10:23:25.992Z,94862.00
2023-04-17T10:24:25.602Z,94860.00
2023-04-17T10:25:26.099Z,94864.00
2023-04-17T10:26:25.549Z,94860.00
2023-04-17T10:27:25.584Z,94864.00
2023-04-17T10:28:25.967Z,94862.00
2023-04-17T10:29:25.472Z,94860.00
2023-04-17T10:30:25.498Z,94859.00
2023-04-17T10:31:25.555Z,94860.00
2023-04-17T10:32:25.531Z,94857.00
2023-04-17T10:33:26.094Z,94859.00
2023-04-17T10:34:25.469Z,94859.00
2023-04-17T10:35:25.463Z,94859.00
2023-04-17T10:36:25.450Z,94857.00
2023-04-17T10:37:25.459Z,94853.00
2023-04-17T10:38:25.469Z,94855.00
2023-04-17T10:39:25.453Z,94855.00
2023-04-17T10:40:25.529Z,94853.00
2023-04-17T10:41:25.487Z,94853.00
2023-04-17T10:42:25.425Z,94853.00
2023-04-17T10:43:25.471Z,94851.00
2023-04-17T10:44:26.004Z,94849.00
2023-04-17T10:45:25.981Z,94851.00
2023-04-17T10:46:25.551Z,94851.00
2023-04-17T10:47:25.452Z,94853.00
2023-04-17T10:48:28.067Z,94851.00
2023-04-17T10:49:25.415Z,94851.00
2023-04-17T10:50:25.354Z,94849.00
2023-04-17T10:51:25.474Z,94851.00
2023-04-17T10:52:25.415Z,94849.00
2023-04-17T10:53:25.500Z,94847.00
2023-04-17T10:54:25.328Z,94845.00
2023-04-17T10:55:25.335Z,94851.00
2023-04-17T10:56:25.363Z,94849.00
2023-04-17T10:57:25.317Z,94847.00
2023-04-17T10:58:31.627Z,94847.00
2023-04-17T10:59:26.352Z,94847.00
2023-04-17T11:00:25.348Z,94849.00
2023-04-17T11:01:26.770Z,94851.00
2023-04-17T11:02:25.404Z,94847.00
2023-04-17T11:03:25.317Z,94849.00
2023-04-17T11:04:25.365Z,94845.00
2023-04-17T11:05:25.340Z,94847.00
2023-04-17T11:06:25.422Z,94847.00
2023-04-17T11:07:25.498Z,94847.00
2023-04-17T11:08:25.583Z,94845.00
2023-04-17T11:09:25.621Z,94845.00
2023-04-17T11:10:25.639Z,94845.00
2023-04-17T11:11:40.040Z,94845.00
2023-04-17T11:12:26.683Z,94843.00
2023-04-17T11:13:25.681Z,94841.00
2023-04-17T11:14:25.670Z,94843.00
2023-04-17T11:15:25.655Z,94841.00
2023-04-17T11:16:25.722Z,94845.00
2023-04-17T11:17:25.751Z,94845.00
2023-04-17T11:18:25.753Z,94847.00
2023-04-17T11:19:25.755Z,94847.00
2023-04-17T11:20:25.660Z,94843.00
2023-04-17T11:21:25.698Z,94841.00
2023-04-17T11:22:25.764Z,94841.00
2023-04-17T11:23:25.985Z,94843.00
2023-04-17T11:24:25.851Z,94843.00
2023-04-17T11:25:26.015Z,94843.00
2023-04-17T11:26:26.008Z,94845.00
2023-04-17T11:27:26.082Z,94843.00
2023-04-17T11:28:26.157Z,94845.00
2023-04-17T11:29:26.231Z,94841.00
2023-04-17T11:30:26.267Z,94841.00
2023-04-17T11:31:26.346Z,94841.00
2023-04-17T11:32:26.418Z,94843.00
2023-04-17T11:33:26.507Z,94845.00
2023-04-17T11:34:26.517Z,94845.00
2023-04-17T11:35:26.542Z,94845.00
2023-04-17T11:36:26.635Z,94845.00
2023-04-17T11:37:26.664Z,94843.00
2023-04-17T11:38:26.748Z,94841.00
2023-04-17T11:39:26.817Z,94847.00
2023-04-17T11:40:26.982Z,94843.00
2023-04-17T11:41:26.990Z,94845.00
2023-04-17T11:42:27.019Z,94843.00
2023-04-17T11:43:27.500Z,94847.00
2023-04-17T11:44:27.078Z,94843.00
2023-04-17T11:45:27.101Z,94841.00
2023-04-17T11:46:27.117Z,94843.00